Time;durP1;ratioP1;P1;durP2;ratioP2;P2;SDS_P1;SDS_P2;PMS_P1;PMS_P2;Temp;Humidity;BMP_temperature;BMP_pressure;BME280_temperature;BME280_humidity;BME280_pressure;Samples;Min_cycle;Max_cycle;Signal;HPM_P1;HPM_P2
2022/09/23 00:01:11;;;;;;;9.35;8.45;;;;;;;;;;5058787;28;20034;-76
2022/09/23 00:03:37;;;;;;;11.95;10.75;;;;;;;;;;5042939;28;20028;-74
2022/09/23 00:06:04;;;;;;;16.83;14.98;;;;;;;;;;5059803;28;20043;-74
2022/09/23 00:08:29;;;;;;;10.35;9.27;;;;;;;;;;5059460;28;20020;-74
2022/09/23 00:10:55;;;;;;;9.73;8.82;;;;;;;;;;5043241;28;20028;-74
2022/09/23 00:13:21;;;;;;;8.57;7.78;;;;;;;;;;5060631;28;20028;-75
2022/09/23 00:15:46;;;;;;;7.63;6.82;;;;;;;;;;5059384;28;20047;-74
2022/09/23 00:18:11;;;;;;;7.53;6.82;;;;;;;;;;5054683;28;20356;-75
2022/09/23 00:20:37;;;;;;;7.93;7.13;;;;;;;;;;5048544;28;20025;-73
2022/09/23 00:23:02;;;;;;;8.50;7.80;;;;;;;;;;5045025;28;20107;-77
2022/09/23 00:25:28;;;;;;;8.05;7.22;;;;;;;;;;5058541;28;20032;-75
2022/09/23 00:27:54;;;;;;;15.88;14.27;;;;;;;;;;5060832;28;20024;-74
2022/09/23 00:30:19;;;;;;;15.80;14.05;;;;;;;;;;5058137;28;20032;-76
2022/09/23 00:32:45;;;;;;;19.00;17.00;;;;;;;;;;5040091;28;20036;-75
2022/09/23 00:35:10;;;;;;;9.88;8.98;;;;;;;;;;5058175;28;20028;-73
2022/09/23 00:37:35;;;;;;;9.77;8.23;;;;;;;;;;5057948;28;20029;-76
2022/09/23 00:40:01;;;;;;;8.63;7.72;;;;;;;;;;5046741;28;20024;-73
2022/09/23 00:42:27;;;;;;;8.73;7.72;;;;;;;;;;5059871;28;20111;-74
2022/09/23 00:44:53;;;;;;;11.10;9.40;;;;;;;;;;5060601;28;20044;-74
2022/09/23 00:47:21;;;;;;;30.63;23.88;;;;;;;;;;5061655;28;20043;-76
2022/09/23 00:49:48;;;;;;;14.18;12.35;;;;;;;;;;5058586;28;20423;-77
2022/09/23 00:52:16;;;;;;;55.10;37.65;;;;;;;;;;5041419;28;20028;-75
2022/09/23 00:54:42;;;;;;;50.20;36.45;;;;;;;;;;5037184;28;20159;-74
2022/09/23 00:57:10;;;;;;;19.90;16.85;;;;;;;;;;5056356;28;20028;-74
2022/09/23 00:59:35;;;;;;;16.08;11.73;;;;;;;;;;5061114;28;20070;-75
2022/09/23 01:02:01;;;;;;;12.88;10.98;;;;;;;;;;5041967;28;20117;-75
2022/09/23 01:04:27;;;;;;;10.85;9.48;;;;;;;;;;5059821;28;20049;-73
2022/09/23 01:06:53;;;;;;;12.27;10.90;;;;;;;;;;5059629;28;20028;-73
2022/09/23 01:09:19;;;;;;;11.85;9.45;;;;;;;;;;5053181;28;20031;-74
2022/09/23 01:11:50;;;;;;;12.43;11.15;;;;;;;;;;5046056;28;20032;-73
2022/09/23 01:14:19;;;;;;;10.95;9.85;;;;;;;;;;5060447;28;20024;-75
2022/09/23 01:16:48;;;;;;;10.68;9.57;;;;;;;;;;5061305;28;20017;-75
2022/09/23 01:19:23;;;;;;;9.30;8.40;;;;;;;;;;5059366;28;20109;-73
2022/09/23 01:21:56;;;;;;;9.98;8.98;;;;;;;;;;5059754;28;20033;-76
2022/09/23 01:24:40;;;;;;;10.85;9.85;;;;;;;;;;5058746;28;20085;-74
2022/09/23 01:27:15;;;;;;;12.43;10.98;;;;;;;;;;5057806;28;20031;-74
2022/09/23 01:29:52;;;;;;;10.45;9.50;;;;;;;;;;5056653;28;20669;-74
2022/09/23 01:32:30;;;;;;;11.68;9.45;;;;;;;;;;5059008;28;20122;-74
2022/09/23 01:35:01;;;;;;;9.05;8.07;;;;;;;;;;5048721;28;20495;-73
2022/09/23 01:37:37;;;;;;;8.70;7.88;;;;;;;;;;5051336;28;20029;-73
2022/09/23 01:40:09;;;;;;;21.38;18.23;;;;;;;;;;5058825;28;20458;-74
2022/09/23 01:42:41;;;;;;;16.77;12.85;;;;;;;;;;5056574;28;20024;-73
2022/09/23 01:45:12;;;;;;;25.50;20.95;;;;;;;;;;5058063;28;20052;-73
2022/09/23 01:47:44;;;;;;;14.77;11.85;;;;;;;;;;5058432;28;20109;-74
2022/09/23 01:53:03;;;;;;;34.60;26.92;;;;;;;;;;5059583;28;20038;-74
2022/09/23 01:55:30;;;;;;;36.97;26.83;;;;;;;;;;5057366;28;20052;-73
2022/09/23 01:58:03;;;;;;;46.53;32.97;;;;;;;;;;5050934;28;20035;-75
2022/09/23 02:00:30;;;;;;;21.00;16.35;;;;;;;;;;5043614;28;20130;-73
2022/09/23 02:03:00;;;;;;;16.65;13.00;;;;;;;;;;5058805;28;20106;-73
2022/09/23 02:05:32;;;;;;;23.42;18.15;;;;;;;;;;5057222;28;20020;-74
2022/09/23 02:08:00;;;;;;;32.38;21.30;;;;;;;;;;5057076;28;20036;-74
2022/09/23 02:10:50;;;;;;;18.55;15.55;;;;;;;;;;5057132;28;20040;-75
2022/09/23 02:13:19;;;;;;;21.67;15.32;;;;;;;;;;5046595;28;20040;-74
2022/09/23 02:15:49;;;;;;;63.70;31.20;;;;;;;;;;5058749;28;20035;-74
2022/09/23 02:18:18;;;;;;;13.68;11.38;;;;;;;;;;5057778;28;20142;-74
2022/09/23 02:20:45;;;;;;;12.15;10.93;;;;;;;;;;5038632;28;20044;-75
2022/09/23 02:23:13;;;;;;;25.33;14.40;;;;;;;;;;5058638;28;20040;-74
2022/09/23 02:26:08;;;;;;;19.52;13.52;;;;;;;;;;5057247;28;20029;-75
2022/09/23 02:28:42;;;;;;;16.00;12.00;;;;;;;;;;4973309;28;20039;-74
2022/09/23 02:31:13;;;;;;;16.27;13.25;;;;;;;;;;4973636;28;20095;-75
2022/09/23 02:33:43;;;;;;;16.10;14.20;;;;;;;;;;4970867;28;20797;-74
2022/09/23 02:36:12;;;;;;;13.73;12.35;;;;;;;;;;4974557;28;20076;-75
2022/09/23 02:38:41;;;;;;;16.83;12.97;;;;;;;;;;4971094;28;20052;-76
2022/09/23 02:41:13;;;;;;;15.65;14.20;;;;;;;;;;4972308;28;20018;-76
2022/09/23 02:43:42;;;;;;;13.23;11.93;;;;;;;;;;4974946;28;20109;-76
2022/09/23 02:46:07;;;;;;;16.35;14.73;;;;;;;;;;4973540;28;20857;-74
2022/09/23 02:48:47;;;;;;;13.88;12.48;;;;;;;;;;4972330;28;20478;-74
2022/09/23 02:51:12;;;;;;;18.15;16.40;;;;;;;;;;4965728;28;20062;-75
2022/09/23 02:53:38;;;;;;;14.25;12.75;;;;;;;;;;4974935;28;20054;-76
2022/09/23 02:56:18;;;;;;;11.90;10.75;;;;;;;;;;4971151;28;20088;-76
2022/09/23 02:58:45;;;;;;;12.00;10.82;;;;;;;;;;4976599;28;20049;-76
2022/09/23 03:01:22;;;;;;;13.32;11.50;;;;;;;;;;4968505;28;20030;-76
2022/09/23 03:03:52;;;;;;;11.90;10.73;;;;;;;;;;4979595;28;20104;-76
2022/09/23 03:06:29;;;;;;;12.05;10.85;;;;;;;;;;5063918;28;20040;-75
2022/09/23 03:08:58;;;;;;;12.05;10.90;;;;;;;;;;5062223;28;20031;-74
2022/09/23 03:11:23;;;;;;;12.20;10.95;;;;;;;;;;5061187;28;20502;-76
2022/09/23 03:14:06;;;;;;;12.02;10.93;;;;;;;;;;5063031;28;20111;-75
2022/09/23 03:16:31;;;;;;;11.68;10.50;;;;;;;;;;5061785;28;20033;-76
2022/09/23 03:19:16;;;;;;;13.68;12.30;;;;;;;;;;5057975;28;20028;-76
2022/09/23 03:21:54;;;;;;;21.17;15.57;;;;;;;;;;5050945;28;20032;-76
2022/09/23 03:24:20;;;;;;;17.90;14.68;;;;;;;;;;5063024;28;20032;-75
2022/09/23 03:26:46;;;;;;;15.90;14.18;;;;;;;;;;5062605;28;20044;-75
2022/09/23 03:29:13;;;;;;;19.38;16.42;;;;;;;;;;5062213;28;20021;-74
2022/09/23 03:31:40;;;;;;;18.75;16.17;;;;;;;;;;5059242;28;20037;-74
2022/09/23 03:34:09;;;;;;;20.92;17.67;;;;;;;;;;5060778;28;20431;-75
2022/09/23 03:37:06;;;;;;;16.30;14.60;;;;;;;;;;5060480;28;20052;-74
2022/09/23 03:39:39;;;;;;;14.68;13.18;;;;;;;;;;5046342;28;20127;-75
2022/09/23 03:42:15;;;;;;;13.10;11.80;;;;;;;;;;5039633;28;20025;-75
2022/09/23 03:44:43;;;;;;;15.93;12.65;;;;;;;;;;5060571;28;20061;-74
2022/09/23 03:47:09;;;;;;;14.75;13.35;;;;;;;;;;5054851;28;20033;-72
2022/09/23 03:49:36;;;;;;;36.70;30.02;;;;;;;;;;5046323;28;20078;-73
2022/09/23 03:52:02;;;;;;;25.60;19.30;;;;;;;;;;5059631;28;20082;-75
2022/09/23 03:54:28;;;;;;;16.65;14.95;;;;;;;;;;5061718;28;20028;-74
2022/09/23 03:56:56;;;;;;;14.15;12.65;;;;;;;;;;5061859;28;20020;-73
2022/09/23 03:59:22;;;;;;;12.82;11.52;;;;;;;;;;5038453;28;20433;-73
2022/09/23 04:01:49;;;;;;;14.27;12.82;;;;;;;;;;5056936;28;20060;-73
2022/09/23 04:04:14;;;;;;;41.88;31.92;;;;;;;;;;5055588;28;20842;-72
2022/09/23 04:06:40;;;;;;;16.50;14.80;;;;;;;;;;5046121;28;20097;-73
2022/09/23 04:09:05;;;;;;;16.25;14.60;;;;;;;;;;5061967;28;20024;-73
2022/09/23 04:11:30;;;;;;;17.02;15.43;;;;;;;;;;5053008;28;20039;-72
2022/09/23 04:13:56;;;;;;;18.77;16.98;;;;;;;;;;5039030;28;20037;-73
2022/09/23 04:16:21;;;;;;;27.90;24.85;;;;;;;;;;5038967;28;20482;-74
2022/09/23 04:18:47;;;;;;;27.05;24.15;;;;;;;;;;5042135;28;20095;-72
2022/09/23 04:21:13;;;;;;;18.00;16.27;;;;;;;;;;5043720;28;20036;-75
2022/09/23 04:23:38;;;;;;;15.10;13.80;;;;;;;;;;5037857;28;20487;-72
2022/09/23 04:26:04;;;;;;;14.45;13.15;;;;;;;;;;5052882;28;20333;-73
2022/09/23 04:28:30;;;;;;;15.40;13.90;;;;;;;;;;5057975;28;20025;-73
2022/09/23 04:30:56;;;;;;;14.25;12.85;;;;;;;;;;5058650;28;20035;-72
2022/09/23 04:33:22;;;;;;;14.00;12.70;;;;;;;;;;5057136;28;20028;-73
2022/09/23 04:35:49;;;;;;;47.30;32.95;;;;;;;;;;5039450;28;20031;-74
2022/09/23 04:38:14;;;;;;;106.45;74.47;;;;;;;;;;5042184;28;20024;-71
2022/09/23 04:40:39;;;;;;;217.82;168.45;;;;;;;;;;5043319;28;20458;-73
2022/09/23 04:43:05;;;;;;;89.97;71.18;;;;;;;;;;5060120;28;20052;-71
2022/09/23 04:45:30;;;;;;;52.67;42.95;;;;;;;;;;5059382;28;20041;-72
2022/09/23 04:47:57;;;;;;;34.05;26.75;;;;;;;;;;5061323;28;20039;-72
2022/09/23 04:50:23;;;;;;;104.20;89.60;;;;;;;;;;5059068;28;20078;-71
2022/09/23 04:52:48;;;;;;;71.32;58.58;;;;;;;;;;5060804;28;20397;-75
2022/09/23 04:55:13;;;;;;;44.03;35.78;;;;;;;;;;5048674;28;20371;-73
2022/09/23 04:57:39;;;;;;;40.03;31.30;;;;;;;;;;5047550;28;20024;-71
2022/09/23 05:00:04;;;;;;;29.38;22.73;;;;;;;;;;5059727;28;20386;-71
2022/09/23 05:02:30;;;;;;;38.03;28.17;;;;;;;;;;5059448;28;20411;-71
2022/09/23 05:04:57;;;;;;;70.68;54.97;;;;;;;;;;5057291;28;20041;-72
2022/09/23 05:07:23;;;;;;;50.10;43.13;;;;;;;;;;5057834;28;20024;-73
2022/09/23 05:09:48;;;;;;;33.90;29.75;;;;;;;;;;5058536;28;20028;-72
2022/09/23 05:12:14;;;;;;;22.65;20.27;;;;;;;;;;5041678;28;20036;-71
2022/09/23 05:14:39;;;;;;;17.90;16.08;;;;;;;;;;5059697;28;20036;-72
2022/09/23 05:17:04;;;;;;;94.80;56.92;;;;;;;;;;5059153;28;20359;-72
2022/09/23 05:19:30;;;;;;;122.18;76.75;;;;;;;;;;5058180;28;20094;-69
2022/09/23 05:21:55;;;;;;;221.75;129.25;;;;;;;;;;5051864;28;20021;-73
2022/09/23 05:24:21;;;;;;;132.88;83.18;;;;;;;;;;5047166;28;20032;-69
2022/09/23 05:26:47;;;;;;;67.20;44.60;;;;;;;;;;5058057;28;20037;-71
2022/09/23 05:29:12;;;;;;;43.15;30.25;;;;;;;;;;5058143;28;20039;-70
2022/09/23 05:31:37;;;;;;;68.82;48.75;;;;;;;;;;5059128;28;20025;-70
2022/09/23 05:34:04;;;;;;;40.47;31.83;;;;;;;;;;5045324;28;20036;-71
2022/09/23 05:36:30;;;;;;;39.20;32.70;;;;;;;;;;5049434;28;20024;-73
2022/09/23 05:38:56;;;;;;;28.17;24.92;;;;;;;;;;5057986;28;20451;-70
2022/09/23 05:41:22;;;;;;;36.92;31.88;;;;;;;;;;5057720;28;20035;-70
2022/09/23 05:43:47;;;;;;;50.85;40.20;;;;;;;;;;5058566;28;20103;-71
2022/09/23 05:46:20;;;;;;;41.33;32.42;;;;;;;;;;5054909;28;20465;-71
2022/09/23 05:48:46;;;;;;;28.65;24.35;;;;;;;;;;5034916;28;20113;-70
2022/09/23 05:51:19;;;;;;;187.68;106.38;;;;;;;;;;5035337;28;20029;-71
2022/09/23 05:53:44;;;;;;;84.05;56.05;;;;;;;;;;5033942;28;20123;-71
2022/09/23 05:56:17;;;;;;;57.10;43.67;;;;;;;;;;5034437;28;20099;-72
2022/09/23 05:58:43;;;;;;;44.58;38.75;;;;;;;;;;5033133;28;20466;-70
2022/09/23 06:01:13;;;;;;;39.28;33.58;;;;;;;;;;5056252;28;20043;-72
2022/09/23 06:03:39;;;;;;;27.08;24.17;;;;;;;;;;5041573;28;20868;-72
2022/09/23 06:06:04;;;;;;;21.92;19.35;;;;;;;;;;5032461;28;20091;-73
2022/09/23 06:08:32;;;;;;;34.53;30.88;;;;;;;;;;5037165;28;20025;-72
2022/09/23 06:11:06;;;;;;;31.38;27.30;;;;;;;;;;5057740;28;20060;-71
2022/09/23 06:13:31;;;;;;;28.05;25.15;;;;;;;;;;5057509;28;20043;-73
2022/09/23 06:15:57;;;;;;;23.73;21.23;;;;;;;;;;5057635;28;20356;-71
2022/09/23 06:18:22;;;;;;;23.13;20.83;;;;;;;;;;5058590;28;20027;-70
2022/09/23 06:20:47;;;;;;;31.10;27.90;;;;;;;;;;5057562;28;20066;-71
2022/09/23 06:23:13;;;;;;;39.72;35.65;;;;;;;;;;5056291;28;21061;-72
2022/09/23 06:25:38;;;;;;;43.55;30.08;;;;;;;;;;5040158;28;20419;-71
2022/09/23 06:28:04;;;;;;;30.52;24.25;;;;;;;;;;5052112;28;20074;-74
2022/09/23 06:30:29;;;;;;;29.95;23.85;;;;;;;;;;5056296;28;20020;-74
2022/09/23 06:32:56;;;;;;;53.42;44.95;;;;;;;;;;5056176;28;20017;-72
2022/09/23 06:35:22;;;;;;;28.73;23.98;;;;;;;;;;5056339;28;20020;-73
2022/09/23 06:37:48;;;;;;;24.73;21.45;;;;;;;;;;5056344;28;20500;-71
2022/09/23 06:40:13;;;;;;;25.70;18.63;;;;;;;;;;5058436;28;20028;-71
2022/09/23 06:42:39;;;;;;;18.45;15.05;;;;;;;;;;5056807;28;20064;-71
2022/09/23 06:45:05;;;;;;;21.50;18.98;;;;;;;;;;5013473;28;1276390;-73
2022/09/23 06:47:30;;;;;;;25.85;21.10;;;;;;;;;;5044995;28;20025;-73
2022/09/23 06:49:56;;;;;;;17.40;14.85;;;;;;;;;;5036002;28;20020;-73
2022/09/23 06:52:21;;;;;;;14.32;12.85;;;;;;;;;;5045638;28;20035;-75
2022/09/23 06:54:49;;;;;;;34.15;28.02;;;;;;;;;;5057565;28;20033;-74
2022/09/23 06:57:15;;;;;;;24.15;19.95;;;;;;;;;;5056745;28;20028;-73
2022/09/23 06:59:40;;;;;;;29.85;23.05;;;;;;;;;;5052453;28;20017;-75
2022/09/23 07:02:07;;;;;;;13.50;12.10;;;;;;;;;;5038369;28;20356;-74
2022/09/23 07:04:33;;;;;;;21.05;14.75;;;;;;;;;;5037094;28;20418;-74
2022/09/23 07:06:58;;;;;;;15.50;13.18;;;;;;;;;;5043980;28;20024;-74
2022/09/23 07:09:24;;;;;;;19.10;17.15;;;;;;;;;;5035437;28;21172;-73
2022/09/23 07:11:50;;;;;;;14.00;12.60;;;;;;;;;;5036833;28;20132;-74
2022/09/23 07:14:15;;;;;;;12.30;11.00;;;;;;;;;;5044772;28;20539;-75
2022/09/23 07:16:40;;;;;;;12.52;11.40;;;;;;;;;;5052537;28;20098;-74
2022/09/23 07:19:06;;;;;;;13.75;12.40;;;;;;;;;;5040132;28;20123;-73
2022/09/23 07:21:31;;;;;;;15.32;13.95;;;;;;;;;;5055684;28;21146;-72
2022/09/23 07:23:56;;;;;;;12.15;11.05;;;;;;;;;;5057497;28;20090;-72
2022/09/23 07:26:22;;;;;;;18.52;16.60;;;;;;;;;;5056109;28;20668;-74
2022/09/23 07:28:52;;;;;;;11.60;10.48;;;;;;;;;;5056941;28;20021;-73
2022/09/23 07:31:18;;;;;;;19.25;17.10;;;;;;;;;;5056468;28;20482;-74
2022/09/23 07:33:43;;;;;;;21.70;18.70;;;;;;;;;;5057655;28;20059;-72
2022/09/23 07:36:09;;;;;;;26.10;19.70;;;;;;;;;;5056396;28;20076;-73
2022/09/23 07:38:35;;;;;;;14.02;12.73;;;;;;;;;;5057477;28;20020;-75
2022/09/23 07:41:05;;;;;;;15.60;13.82;;;;;;;;;;5057296;28;20020;-75
2022/09/23 07:43:33;;;;;;;15.70;13.98;;;;;;;;;;5057531;28;20029;-76
2022/09/23 07:46:03;;;;;;;8.68;7.88;;;;;;;;;;5061255;28;20075;-72
2022/09/23 07:48:29;;;;;;;23.60;20.77;;;;;;;;;;5058823;28;20040;-71
2022/09/23 07:50:54;;;;;;;31.10;24.77;;;;;;;;;;5058432;28;20510;-70
2022/09/23 07:53:20;;;;;;;18.95;16.95;;;;;;;;;;5061101;28;20394;-71
2022/09/23 07:55:50;;;;;;;11.75;10.63;;;;;;;;;;5060601;28;20028;-72
2022/09/23 07:58:15;;;;;;;17.67;13.93;;;;;;;;;;5060773;28;20115;-73
2022/09/23 08:00:41;;;;;;;14.35;13.05;;;;;;;;;;5059018;28;20516;-72
2022/09/23 08:03:07;;;;;;;9.88;8.98;;;;;;;;;;5059481;28;20037;-73
2022/09/23 08:05:32;;;;;;;12.13;10.63;;;;;;;;;;5061029;28;20021;-74
2022/09/23 08:07:57;;;;;;;7.30;6.60;;;;;;;;;;5060274;28;20032;-73
2022/09/23 08:10:23;;;;;;;8.20;7.40;;;;;;;;;;5058684;28;20028;-72
2022/09/23 08:12:48;;;;;;;18.52;16.55;;;;;;;;;;5057620;28;20057;-72
2022/09/23 08:15:13;;;;;;;13.48;11.95;;;;;;;;;;5039300;28;20510;-72
2022/09/23 08:17:39;;;;;;;18.15;16.35;;;;;;;;;;5038774;28;20043;-71
2022/09/23 08:20:07;;;;;;;7.13;6.53;;;;;;;;;;5038150;28;20489;-73
2022/09/23 08:22:32;;;;;;;6.90;6.30;;;;;;;;;;5041507;28;20024;-74
2022/09/23 08:24:57;;;;;;;7.10;6.50;;;;;;;;;;5038062;28;20044;-73
2022/09/23 08:27:23;;;;;;;8.02;7.32;;;;;;;;;;5039498;28;20024;-72
2022/09/23 08:29:48;;;;;;;7.05;6.45;;;;;;;;;;5039287;28;20040;-72
2022/09/23 08:32:13;;;;;;;6.50;5.90;;;;;;;;;;5037217;28;20429;-73
2022/09/23 08:34:39;;;;;;;5.30;4.90;;;;;;;;;;5037079;28;20148;-73
2022/09/23 08:37:08;;;;;;;10.55;9.55;;;;;;;;;;5037317;28;20032;-72
2022/09/23 08:39:33;;;;;;;8.18;7.38;;;;;;;;;;5042842;28;20028;-72
2022/09/23 08:41:59;;;;;;;9.60;8.63;;;;;;;;;;5035937;28;20040;-72
2022/09/23 08:44:31;;;;;;;7.40;6.65;;;;;;;;;;5034755;28;20044;-72
2022/09/23 08:47:14;;;;;;;7.18;6.55;;;;;;;;;;5039011;28;20029;-72
2022/09/23 08:50:03;;;;;;;5.22;4.78;;;;;;;;;;5058040;28;20024;-72
2022/09/23 08:52:40;;;;;;;7.80;7.10;;;;;;;;;;5049399;28;20439;-71
2022/09/23 08:55:10;;;;;;;13.73;10.45;;;;;;;;;;5057745;28;20119;-74
2022/09/23 08:57:41;;;;;;;5.40;5.00;;;;;;;;;;5058597;28;20024;-72
2022/09/23 09:00:13;;;;;;;6.43;5.82;;;;;;;;;;5058093;28;20024;-71
2022/09/23 09:02:38;;;;;;;8.52;7.65;;;;;;;;;;5060839;28;20032;-73
2022/09/23 09:05:07;;;;;;;11.68;9.85;;;;;;;;;;5059277;28;20348;-72
2022/09/23 09:07:34;;;;;;;14.68;11.23;;;;;;;;;;5060412;28;20024;-77
2022/09/23 09:10:05;;;;;;;18.08;14.68;;;;;;;;;;5057978;28;20093;-74
2022/09/23 09:12:37;;;;;;;4.80;4.38;;;;;;;;;;5057840;28;20032;-73
2022/09/23 09:15:10;;;;;;;4.68;3.55;;;;;;;;;;5060972;28;20024;-74
2022/09/23 09:17:38;;;;;;;3.72;3.42;;;;;;;;;;5058276;28;20021;-72
2022/09/23 09:20:07;;;;;;;4.15;3.83;;;;;;;;;;5057729;28;20036;-71
2022/09/23 09:22:47;;;;;;;4.47;4.10;;;;;;;;;;5051034;28;20020;-75
2022/09/23 09:25:15;;;;;;;6.40;5.40;;;;;;;;;;5045206;28;20035;-73
2022/09/23 09:27:41;;;;;;;7.25;6.55;;;;;;;;;;5059578;28;20038;-71
2022/09/23 09:30:11;;;;;;;6.05;5.45;;;;;;;;;;5057796;28;20025;-72
2022/09/23 09:32:46;;;;;;;3.28;2.97;;;;;;;;;;5052774;28;20028;-73
2022/09/23 09:35:23;;;;;;;2.97;2.78;;;;;;;;;;5047950;28;20029;-73
2022/09/23 09:37:48;;;;;;;3.45;3.15;;;;;;;;;;5054580;28;20033;-73
2022/09/23 09:40:15;;;;;;;3.63;3.33;;;;;;;;;;5057655;28;20029;-75
2022/09/23 09:42:44;;;;;;;3.13;2.92;;;;;;;;;;5056927;28;20028;-75
2022/09/23 09:45:14;;;;;;;10.90;6.72;;;;;;;;;;5056925;28;20057;-72
2022/09/23 09:47:58;;;;;;;7.97;5.93;;;;;;;;;;5055778;28;20032;-73
2022/09/23 09:50:42;;;;;;;4.60;4.20;;;;;;;;;;5058392;28;20024;-72
2022/09/23 09:53:29;;;;;;;3.97;3.42;;;;;;;;;;5058547;28;20028;-72
2022/09/23 09:56:05;;;;;;;3.90;3.60;;;;;;;;;;5057787;28;20458;-71
2022/09/23 09:58:42;;;;;;;4.00;3.70;;;;;;;;;;5055514;28;20039;-74
2022/09/23 10:01:08;;;;;;;4.40;4.00;;;;;;;;;;5059340;28;20093;-75
2022/09/23 10:03:37;;;;;;;7.47;6.90;;;;;;;;;;5056293;28;20448;-73
2022/09/23 10:06:12;;;;;;;7.18;6.57;;;;;;;;;;5037760;28;20116;-73
2022/09/23 10:08:37;;;;;;;5.97;5.47;;;;;;;;;;5052544;28;20017;-74
2022/09/23 10:11:16;;;;;;;8.63;5.15;;;;;;;;;;5036988;28;20082;-73
2022/09/23 10:14:00;;;;;;;4.82;4.38;;;;;;;;;;5047001;28;20039;-72
2022/09/23 10:16:26;;;;;;;5.30;4.90;;;;;;;;;;5054204;28;20154;-73
2022/09/23 10:18:55;;;;;;;4.10;3.80;;;;;;;;;;5039788;28;20096;-73
2022/09/23 10:21:21;;;;;;;4.50;4.10;;;;;;;;;;5037781;28;20032;-73
2022/09/23 10:23:51;;;;;;;51.45;46.03;;;;;;;;;;5036429;28;20117;-73
2022/09/23 10:26:17;;;;;;;11.63;10.52;;;;;;;;;;5038007;28;20025;-74
2022/09/23 10:28:49;;;;;;;4.32;4.03;;;;;;;;;;5038379;28;20081;-74
2022/09/23 10:31:23;;;;;;;31.25;16.73;;;;;;;;;;5034555;28;20029;-76
2022/09/23 10:33:54;;;;;;;14.30;10.45;;;;;;;;;;5037510;28;20036;-74
2022/09/23 10:36:20;;;;;;;12.35;11.05;;;;;;;;;;5038330;28;20021;-76
2022/09/23 10:38:47;;;;;;;9.32;8.45;;;;;;;;;;5039547;28;20020;-74
2022/09/23 10:46:46;;;;;;;9.32;7.80;;;;;;;;;;5041783;28;20033;-73
2022/09/23 10:49:14;;;;;;;4.72;4.43;;;;;;;;;;5055222;28;20447;-72
2022/09/23 10:51:42;;;;;;;5.35;4.78;;;;;;;;;;5059282;28;20086;-72
2022/09/23 10:54:17;;;;;;;4.60;4.25;;;;;;;;;;5060181;28;20104;-75
2022/09/23 10:56:45;;;;;;;9.57;8.68;;;;;;;;;;5058359;28;20040;-75
2022/09/23 10:59:17;;;;;;;33.53;28.85;;;;;;;;;;5058303;28;20384;-74
2022/09/23 11:01:42;;;;;;;90.95;47.72;;;;;;;;;;5059741;28;20016;-74
2022/09/23 11:04:17;;;;;;;5.35;4.85;;;;;;;;;;5057388;28;20043;-75
2022/09/23 11:06:42;;;;;;;7.18;5.60;;;;;;;;;;5059160;28;20051;-75
2022/09/23 11:09:28;;;;;;;8.05;6.97;;;;;;;;;;5057439;28;20013;-74
2022/09/23 11:12:02;;;;;;;3.90;3.58;;;;;;;;;;5055429;28;20046;-76
2022/09/23 11:14:37;;;;;;;3.10;2.80;;;;;;;;;;5056312;28;20426;-74
2022/09/23 11:17:04;;;;;;;4.03;3.40;;;;;;;;;;5055282;28;20331;-74
2022/09/23 11:19:35;;;;;;;5.18;3.80;;;;;;;;;;5058406;28;20035;-75
2022/09/23 11:22:20;;;;;;;5.03;4.63;;;;;;;;;;5061806;28;20071;-75
2022/09/23 11:25:05;;;;;;;7.15;6.55;;;;;;;;;;5058545;28;20032;-76
2022/09/23 11:27:42;;;;;;;12.57;11.50;;;;;;;;;;5048198;28;20056;-76
2022/09/23 11:30:09;;;;;;;10.05;9.05;;;;;;;;;;5061806;28;20431;-75
2022/09/23 11:32:38;;;;;;;60.90;53.00;;;;;;;;;;5061840;28;20090;-73
2022/09/23 11:35:19;;;;;;;14.50;12.68;;;;;;;;;;5043351;28;20090;-74
2022/09/23 11:37:53;;;;;;;37.75;33.88;;;;;;;;;;5057436;28;20049;-74
2022/09/23 11:40:21;;;;;;;17.00;15.20;;;;;;;;;;5059204;28;20534;-73
2022/09/23 11:42:57;;;;;;;12.38;10.93;;;;;;;;;;5060355;28;20132;-73
2022/09/23 11:45:29;;;;;;;14.02;11.75;;;;;;;;;;5058467;28;20479;-74
2022/09/23 11:47:55;;;;;;;24.33;19.83;;;;;;;;;;5061100;28;20032;-73
2022/09/23 11:50:37;;;;;;;38.97;29.08;;;;;;;;;;5049851;28;20021;-73
2022/09/23 11:53:17;;;;;;;94.90;75.82;;;;;;;;;;5042883;28;20446;-74
2022/09/23 11:55:54;;;;;;;46.28;39.80;;;;;;;;;;5047205;28;20036;-75
2022/09/23 11:58:23;;;;;;;17.02;15.15;;;;;;;;;;5057373;28;20024;-77
2022/09/23 12:00:52;;;;;;;9.98;8.18;;;;;;;;;;5053105;28;20029;-75
2022/09/23 12:03:30;;;;;;;5.50;4.93;;;;;;;;;;5045303;28;20055;-76
2022/09/23 12:05:57;;;;;;;7.40;6.30;;;;;;;;;;5051102;28;20035;-76
2022/09/23 12:08:24;;;;;;;9.68;8.77;;;;;;;;;;5042102;28;20029;-76
2022/09/23 12:10:56;;;;;;;15.43;14.13;;;;;;;;;;5056100;28;20459;-75
2022/09/23 12:13:27;;;;;;;7.82;7.13;;;;;;;;;;5056297;28;20037;-76
2022/09/23 12:16:08;;;;;;;5.70;5.20;;;;;;;;;;5052959;28;20021;-75
2022/09/23 12:18:43;;;;;;;4.82;4.43;;;;;;;;;;5038446;28;20028;-73
2022/09/23 12:21:08;;;;;;;5.03;4.63;;;;;;;;;;5056880;28;20028;-75
2022/09/23 12:23:33;;;;;;;5.63;5.10;;;;;;;;;;5063231;28;20036;-76
2022/09/23 12:26:01;;;;;;;5.25;4.82;;;;;;;;;;5060397;28;20036;-76
2022/09/23 12:28:37;;;;;;;11.43;10.00;;;;;;;;;;5060422;28;20021;-75
2022/09/23 12:31:07;;;;;;;5.85;5.32;;;;;;;;;;5060132;28;20037;-73
2022/09/23 12:33:33;;;;;;;5.88;4.93;;;;;;;;;;5041040;28;20456;-74
2022/09/23 12:36:05;;;;;;;5.05;4.20;;;;;;;;;;5042622;28;20024;-74
2022/09/23 12:38:36;;;;;;;9.48;8.55;;;;;;;;;;5052907;28;20024;-76
2022/09/23 12:41:06;;;;;;;18.95;17.00;;;;;;;;;;5034635;28;20047;-75
2022/09/23 12:43:36;;;;;;;5.95;5.45;;;;;;;;;;5044960;28;20032;-77
2022/09/23 12:46:17;;;;;;;4.70;4.30;;;;;;;;;;5059848;28;20403;-76
2022/09/23 12:48:44;;;;;;;5.90;5.40;;;;;;;;;;5036152;28;20025;-76
2022/09/23 12:51:17;;;;;;;5.07;4.13;;;;;;;;;;5039311;28;20025;-76
2022/09/23 12:53:53;;;;;;;4.68;4.32;;;;;;;;;;5038997;28;20124;-76
2022/09/23 12:56:38;;;;;;;8.63;7.22;;;;;;;;;;5049570;28;20234;-76
2022/09/23 12:59:18;;;;;;;8.73;7.82;;;;;;;;;;5007473;28;20777;-76
2022/09/23 13:01:44;;;;;;;6.93;5.60;;;;;;;;;;5063246;28;20332;-78
2022/09/23 13:07:15;;;;;;;6.70;6.10;;;;;;;;;;5040090;28;20087;-78
2022/09/23 13:09:41;;;;;;;9.20;8.38;;;;;;;;;;5039380;28;20032;-77
2022/09/23 13:12:27;;;;;;;11.15;9.10;;;;;;;;;;5043827;28;20392;-77
2022/09/23 13:14:54;;;;;;;6.80;6.20;;;;;;;;;;5048541;28;20040;-74
2022/09/23 13:17:30;;;;;;;12.05;9.80;;;;;;;;;;5053894;28;20029;-77
2022/09/23 13:20:00;;;;;;;12.27;10.60;;;;;;;;;;5060517;28;20043;-76
2022/09/23 13:22:40;;;;;;;7.80;6.88;;;;;;;;;;5060043;28;20440;-73
2022/09/23 13:25:14;;;;;;;7.65;6.93;;;;;;;;;;5058862;28;20047;-78
2022/09/23 13:27:41;;;;;;;6.93;6.22;;;;;;;;;;5041465;28;20028;-78
2022/09/23 13:30:26;;;;;;;5.50;5.00;;;;;;;;;;5056450;28;20063;-77
2022/09/23 13:33:10;;;;;;;7.40;6.63;;;;;;;;;;5057624;28;20467;-79
2022/09/23 13:35:49;;;;;;;8.43;7.55;;;;;;;;;;5023332;28;20376;-77
2022/09/23 13:38:19;;;;;;;6.55;5.95;;;;;;;;;;5057782;28;20026;-79
2022/09/23 13:40:45;;;;;;;7.20;6.60;;;;;;;;;;5056656;28;20024;-77
2022/09/23 13:43:31;;;;;;;11.18;10.05;;;;;;;;;;5039404;28;20051;-76
2022/09/23 13:45:57;;;;;;;14.50;10.25;;;;;;;;;;5044418;28;20048;-76
2022/09/23 13:48:23;;;;;;;12.90;9.15;;;;;;;;;;5037272;28;20029;-77
2022/09/23 13:50:50;;;;;;;7.95;7.15;;;;;;;;;;5040336;28;20033;-77
2022/09/23 13:53:26;;;;;;;13.63;11.57;;;;;;;;;;5039384;28;20044;-78
2022/09/23 13:55:58;;;;;;;14.15;12.18;;;;;;;;;;5035778;28;20029;-78
2022/09/23 13:58:26;;;;;;;15.23;12.20;;;;;;;;;;5035570;28;20033;-77
2022/09/23 14:00:52;;;;;;;16.05;13.27;;;;;;;;;;5039266;28;20448;-76
2022/09/23 14:03:22;;;;;;;10.32;9.23;;;;;;;;;;5047954;28;20082;-77
2022/09/23 14:05:47;;;;;;;11.73;9.52;;;;;;;;;;5059502;28;20089;-76
2022/09/23 14:08:13;;;;;;;13.00;11.77;;;;;;;;;;5056762;28;20025;-77
2022/09/23 14:10:41;;;;;;;10.32;9.30;;;;;;;;;;5035743;28;20055;-76
2022/09/23 14:13:12;;;;;;;18.23;16.43;;;;;;;;;;5038986;28;20052;-75
2022/09/23 14:15:37;;;;;;;18.30;16.25;;;;;;;;;;5040153;28;20024;-77
2022/09/23 14:18:05;;;;;;;13.50;11.18;;;;;;;;;;5051127;28;20432;-76
2022/09/23 14:20:30;;;;;;;13.82;11.38;;;;;;;;;;5051062;28;20095;-78
2022/09/23 14:23:03;;;;;;;15.85;12.13;;;;;;;;;;5059701;28;20446;-77
2022/09/23 14:25:29;;;;;;;12.93;10.27;;;;;;;;;;5061180;28;20502;-78
2022/09/23 14:27:54;;;;;;;13.35;9.75;;;;;;;;;;5058008;28;20070;-76
2022/09/23 14:30:19;;;;;;;8.77;7.63;;;;;;;;;;5059102;28;20024;-77
2022/09/23 14:32:48;;;;;;;10.77;9.68;;;;;;;;;;5059667;28;20384;-78
2022/09/23 14:35:20;;;;;;;10.98;9.88;;;;;;;;;;5060369;28;20207;-77
2022/09/23 14:40:32;;;;;;;17.23;15.43;;;;;;;;;;5023047;28;20464;-76
2022/09/23 14:42:58;;;;;;;20.20;18.02;;;;;;;;;;5060741;28;20037;-76
2022/09/23 14:45:24;;;;;;;36.00;29.58;;;;;;;;;;5061635;28;20139;-77
2022/09/23 14:47:52;;;;;;;28.50;24.80;;;;;;;;;;5046500;28;20040;-76
2022/09/23 14:53:04;;;;;;;27.27;23.27;;;;;;;;;;5040145;28;20028;-78
2022/09/23 14:55:30;;;;;;;17.30;15.05;;;;;;;;;;5062283;28;20333;-77